This is the latest recevied weather packets stored in our database for station/object GW1546. If no packets are shown the sender has not sent any weather packets the latest 10 day(s).
| Time | Temp. | Humidity | Pressure | Rain* | Wind** | Luminosity | Snow |
|---|---|---|---|---|---|---|---|
| 1777244805 | 18.33° C | 71% | 988.1 hPa | 0 mm | - | - | - |
| 1777241198 | 21.67° C | 59% | 987.4 hPa | 0 mm | - | - | - |
| 1777240488 | 22.22° C | 55% | 987.4 hPa | 0 mm | - | - | - |
| 1777238679 | 23.33° C | 52% | 987.1 hPa | 0 mm | - | - | - |
| 1777235814 | 22.78° C | 55% | 987.1 hPa | 0 mm | - | - | - |
| 1777234359 | 22.78° C | 54% | 987.1 hPa | 0 mm | - | - | - |
| 1777234000 | 22.22° C | 57% | 986.7 hPa | 0 mm | - | - | - |
| 1777231817 | 21.67° C | 57% | 987.4 hPa | 0 mm | - | - | - |
| 1777229659 | 21.67° C | 59% | 987.4 hPa | 0 mm | - | - | - |
| 1777227175 | 20.56° C | 62% | 987.8 hPa | 0 mm | - | - | - |
| 1777222106 | 18.89° C | 69% | 988.4 hPa | 0 mm | - | - | - |
| 1777221386 | 18.33° C | 70% | 988.8 hPa | 0 mm | - | - | - |
| 1777220659 | 18.33° C | 70% | 988.8 hPa | 0 mm | - | - | - |
| 1777216009 | 16.67° C | 74% | 989.1 hPa | 0 mm | - | - | - |
| 1777215257 | 15.56° C | 77% | 988.8 hPa | 0 mm | - | - | - |
| 1777214931 | 16.11° C | 77% | 988.8 hPa | 0 mm | - | - | - |
| 1777213826 | 15° C | 80% | 988.8 hPa | 0 mm | - | - | - |
| 1777213102 | 15° C | 80% | 988.4 hPa | 0 mm | - | - | - |
| 1777212051 | 15° C | 81% | 988.8 hPa | 0 mm | - | - | - |
| 1777209158 | 13.89° C | 85% | 988.4 hPa | 0 mm | - | - | - |
| 1777207359 | 13.89° C | 87% | 988.4 hPa | 0 mm | - | - | - |
| 1777202317 | 13.33° C | 90% | 987.4 hPa | 0 mm | - | - | - |
| 1777201941 | 13.33° C | 92% | 987.1 hPa | 0 mm | - | - | - |
| 1777198332 | 12.78° C | 94% | 986.7 hPa | 0 mm | - | - | - |
| 1777197265 | 12.78° C | 96% | 986.7 hPa | 0 mm | - | - | - |
* Rain since midnight (hover to see other rain measurements)
** Current wind speed in m/s (hover to see current wind gust speed)